普天間飛行場の過去48時間の天気

普天間飛行場 (Futema)

現在時刻: 9/23 06:26 JST (9/22 21:26 UTC) 以下の時間は現地時間です。

過去48時間のMETAR気象情報
時間 風向 風速(m/s) 視程 気温(℃) 湿度(%) 気圧(hPa) 天気現象
23 05:56 西 4 10km以上 24.4 88 1011.3
23 05:53 西 4 10km以上 24 89 1013
23 05:20 西 4 10km以上 25 88 1013
23 04:56 西 4 10km以上 24.4 91 1010.8
23 03:56 西 5 10km以上 25 90 1010.6
23 02:56 西 4 10km以上 24.4 91 1010.5
23 01:56 西 5 10km以上 25 94 1010.8
23 00:56 西 4 10km以上 25 94 1011
22 23:56 西 5 10km以上 25 94 1011
22 22:56 西 4 10km以上 25 90 1011
22 21:56 西 5 10km以上 25 94 1011
22 20:56 西 5 10km以上 25 88 1010.7
22 19:56 西 6 10km以上 25.6 90 1010.2
22 18:56 西南西 5 10km以上 25 88 1009.6
22 17:56 西 5 10km以上 25.6 87 1008.8
22 16:56 西 5 10km以上 26.1 85 1007.9
22 15:56 西 6 10km以上 26.7 85 1007.2
22 14:56 西 6 10km以上 26.7 82 1007.1
22 13:56 西 8 10km以上 26.7 82 1007.1
22 12:56 西 9 10km以上 27.2 82 1007.3
22 11:56 西 7 10km以上 26.1 97 1007.5
22 10:56 西 7 10km以上 26.7 85 1007.3
22 09:56 西南西 7 10km以上 26.1 94 1007.1
22 08:56 西南西 6 10km以上 26.1 88 1006.2
22 08:04 西南西 7 10km以上 25.6 93 1007
22 07:56 西南西 5 10km以上 25.6 96 1005.5
22 07:10 西南西 7 10km以上 25.6 90 1006
22 07:03 西南西 5 10km以上 25.6 93 1006
22 06:56 西南西 6 10km以上 25.6 100 1004.4
22 05:56 南西 6 10km以上 25 - 1003.5
22 04:56 南西 7 10km以上 25 94 1002.8
22 04:46 南西 7 10km以上 25 - 1004
ROTM 222056Z 28008KT 10SM FEW017 FEW030 24/22 A2991 RMK AO2 SLP113 T02440222 51007 $
ROTM 222053Z 28007KT 10SM FEW017 FEW030 24/22 A2991 RMK AO2 $
ROTM 222020Z 28008KT 10SM SCT017 SCT022 BKN027 25/23 A2990 RMK AO2 T02500228 $
ROTM 221956Z 28007KT 9999 FEW015 SCT020 SCT040 24/23 A2990 RMK SLP108 T02440228
ROTM 221856Z 27009KT 10SM SCT020 BKN040 25/23 A2989 RMK AO2 SLP106 T02500233 $
ROTM 221756Z 27007KT 9999 FEW015 SCT045 24/23 A2989 RMK SLP105 T02440228 10250 10244 56003
ROTM 221656Z 28010KT 10SM SCT016 SCT030 BKN045 25/24 A2989 RMK AO2 SLP108 T02500239 $
ROTM 221556Z 27008KT 10SM SCT016 SCT025 BKN045 25/24 A2990 RMK AO2 SLP110 T02500239 $
ROTM 221456Z 27010KT 10SM SCT014 SCT029 BKN043 25/24 A2990 RMK AO2 SLP110 T02500239 402720233 51004 $
ROTM 221356Z 27007KT 10SM FEW014 SCT029 BKN043 25/23 A2990 RMK AO2 SLP110 T02500233 $
ROTM 221256Z 27010KT 10SM SCT018 BKN025 BKN039 25/24 A2990 RMK AO2 SLP110 T02500239 $
ROTM 221156Z COR 27009KT 9999 SCT018 BKN025 BKN039 25/23 A2989 RMK SLP107 T02500228 10267 20250 51007
ROTM 221056Z 27011KT 10SM SCT018 BKN025 OVC041 26/24 A2988 RMK AO2 SLP102 T02560239 $
ROTM 220956Z COR 25009KT 9999 SCT018 BKN030 BKN040 25/23 A2987 RMK SLP096 T02500228
ROTM 220856Z 27010KT 9999 SCT019 BKN030 OVC040 26/23 A2983 RMK SLP088 T02560233 53017
ROTM 220756Z 26010KT 10SM SCT020 BKN030 OVC040 26/23 A2981 RMK AO2 SLP079 T02610233 $
ROTM 220656Z 26012KT 9999 SCT018 BKN030 BKN040 27/24 A2979 RMK SLP072 T02670239
ROTM 220556Z 26012G19KT 9999 SCT018 BKN030 BKN040 27/23 A2978 RMK SLP071 T02670233 10272 20261 57005
ROTM 220456Z 26015G19KT 10SM SCT018 BKN030 OVC040 27/23 A2979 RMK AO2 SLP071 T02670233 $
ROTM 220356Z 28017G22KT 9999 SCT016 SCT025 BKN035 27/24 A2979 RMK SLP073 T02720239
ROTM 220256Z 27013G22KT 9999 SCT016 SCT025 BKN035 26/25 A2980 RMK SLP075 T02610256 51012
ROTM 220156Z 26013G21KT 9999 SCT019 BKN025 OVC035 27/24 A2979 RMK SLP073 T02670239
ROTM 220056Z 25013KT 9999 SCT019 BKN025 OVC035 26/24 A2978 RMK SLP071 T02610250
ROTM 212356Z 24012KT 9999 SCT015 BKN030 26/24 A2976 RMK SLP062 T02610239 10261 20250 51029
ROTM 212304Z 24014G19KT 10SM SCT015 BKN027 26/24 A2974 RMK AO2 T02560244 $
ROTM 212256Z 24009G18KT 10SM FEW020 SCT030 26/25 A2974 RMK AO2 SLP055 T02560250 $
ROTM 212210Z 24013G18KT 9SM FEW020 SCT030 26/24 A2971 RMK AO2 T02560239 $
ROTM 212203Z 24010G17KT 9SM BKN017 BKN028 OVC037 26/24 A2971 RMK AO2 T02560244 $
ROTM 212156Z 24011KT 9SM SCT017 BKN032 BKN040 26/26 A2970 RMK AO2 SLP044 T02560256 $
ROTM 212056Z 23012G22KT 9SM SCT017 BKN030 25/ A2968 RMK AO2 SLP035 T0250 53020 $
ROTM 211956Z 23013G23KT 9999 BKN015 BKN030 25/24 A2966 RMK SLP028 T02500240
ROTM 211946Z 23013G22KT 9SM SCT015 BKN028 OVC034 25/ A2966 RMK AO2 T0250 $